Time;durP1;ratioP1;P1;durP2;ratioP2;P2;SDS_P1;SDS_P2;PMS_P1;PMS_P2;Temp;Humidity;BMP_temperature;BMP_pressure;BME280_temperature;BME280_humidity;BME280_pressure;Samples;Min_cycle;Max_cycle;Signal;HPM_P1;HPM_P2
2023/10/07 00:02:33;;;;;;;;;;;;;;;11.52;100.00;101449.53;5098537;28;19931;-76
2023/10/07 00:05:16;;;;;;;;;;;;;;;11.48;100.00;101454.81;5085559;28;20263;-75
2023/10/07 00:08:00;;;;;;;;;;;;;;;11.44;100.00;101442.56;5098897;28;19918;-75
2023/10/07 00:10:46;;;;;;;;;;;;;;;11.44;100.00;101447.28;5078331;28;19935;-76
2023/10/07 00:13:31;;;;;;;;;;;;;;;11.44;100.00;101450.06;5086355;28;19915;-75
2023/10/07 00:16:18;;;;;;;;;;;;;;;11.40;100.00;101456.19;5097316;28;19961;-77
2023/10/07 00:19:03;;;;;;;;;;;;;;;11.37;100.00;101455.91;5098316;28;19915;-77
2023/10/07 00:22:00;;;;;;;;;;;;;;;11.35;100.00;101456.19;5078529;28;19962;-78
2023/10/07 00:24:45;;;;;;;;;;;;;;;11.34;100.00;101462.88;5086010;28;19914;-77
2023/10/07 00:27:38;;;;;;;;;;;;;;;11.29;100.00;101465.63;5098305;28;19919;-78
2023/10/07 00:30:22;;;;;;;;;;;;;;;11.26;100.00;101466.19;5098098;28;19995;-77
2023/10/07 00:33:09;;;;;;;;;;;;;;;11.28;100.00;101452.00;5083772;28;19950;-78
2023/10/07 00:35:53;;;;;;;;;;;;;;;11.25;100.00;101458.09;5089372;28;20013;-78
2023/10/07 00:38:37;;;;;;;;;;;;;;;11.22;100.00;101462.28;5119349;28;19914;-78
2023/10/07 00:41:24;;;;;;;;;;;;;;;11.20;100.00;101467.31;5112912;28;19961;-78
2023/10/07 00:44:32;;;;;;;;;;;;;;;11.17;100.00;101462.25;5079025;28;19914;-78
2023/10/07 00:47:12;;;;;;;;;;;;;;;11.13;100.00;101450.88;5099433;28;19914;-77
2023/10/07 00:49:57;;;;;;;;;;;;;;;11.12;100.00;101451.16;5108472;28;19954;-78
2023/10/07 00:52:56;;;;;;;;;;;;;;;11.09;100.00;101446.16;5112588;28;20362;-78
2023/10/07 00:55:41;;;;;;;;;;;;;;;11.08;100.00;101444.47;5092329;28;19922;-78
2023/10/07 00:58:27;;;;;;;;;;;;;;;11.07;100.00;101440.03;5090963;28;19914;-78
2023/10/07 01:01:12;;;;;;;;;;;;;;;11.06;100.00;101443.88;5118061;28;19960;-78
2023/10/07 01:03:56;;;;;;;;;;;;;;;11.03;100.00;101438.88;5095820;28;19918;-77
2023/10/07 01:06:40;;;;;;;;;;;;;;;11.01;100.00;101450.28;5104457;28;19914;-78
2023/10/07 01:09:24;;;;;;;;;;;;;;;11.02;100.00;101445.56;5107883;28;19917;-77
2023/10/07 01:12:09;;;;;;;;;;;;;;;10.98;100.00;101447.19;5107575;28;20452;-78
2023/10/07 01:14:53;;;;;;;;;;;;;;;10.93;100.00;101440.53;5103120;28;20036;-77
2023/10/07 01:17:40;;;;;;;;;;;;;;;10.93;100.00;101434.97;5118156;28;19918;-78
2023/10/07 01:20:34;;;;;;;;;;;;;;;10.89;100.00;101433.88;5111057;28;19918;-78
2023/10/07 01:23:19;;;;;;;;;;;;;;;10.89;100.00;101419.13;5095859;28;19914;-78
2023/10/07 01:26:14;;;;;;;;;;;;;;;10.86;100.00;101411.31;5089807;28;19914;-78
2023/10/07 01:29:12;;;;;;;;;;;;;;;10.86;100.00;101406.59;5090864;28;19915;-78
2023/10/07 01:31:59;;;;;;;;;;;;;;;10.85;100.00;101393.00;5115338;27;19946;-78
2023/10/07 01:34:52;;;;;;;;;;;;;;;10.79;100.00;101394.94;5092617;28;20004;-78
2023/10/07 01:37:51;;;;;;;;;;;;;;;10.81;100.00;101402.97;5092434;28;19937;-78
2023/10/07 01:43:48;;;;;;;;;;;;;;;10.73;100.00;101412.69;5108035;28;19915;-77
2023/10/07 01:46:32;;;;;;;;;;;;;;;10.72;100.00;101413.78;5104073;28;19914;-78
2023/10/07 01:49:17;;;;;;;;;;;;;;;10.74;100.00;101411.56;5107680;28;19919;-78
2023/10/07 01:52:03;;;;;;;;;;;;;;;10.74;100.00;101417.13;5103530;28;19914;-78
2023/10/07 01:54:47;;;;;;;;;;;;;;;10.66;100.00;101410.16;5096956;28;20264;-78
2023/10/07 01:57:31;;;;;;;;;;;;;;;10.65;100.00;101410.44;5102441;28;19930;-78
2023/10/07 02:00:38;;;;;;;;;;;;;;;10.64;100.00;101417.94;5101886;28;19976;-78
2023/10/07 02:03:23;;;;;;;;;;;;;;;10.61;100.00;101423.19;5105325;28;19914;-78
2023/10/07 02:06:08;;;;;;;;;;;;;;;10.58;100.00;101427.34;5117848;28;19914;-77
2023/10/07 02:08:55;;;;;;;;;;;;;;;10.59;100.00;101423.47;5103555;28;19918;-78
2023/10/07 02:11:40;;;;;;;;;;;;;;;10.55;100.00;101421.50;5089882;28;20069;-78
2023/10/07 02:14:25;;;;;;;;;;;;;;;10.54;100.00;101425.41;5088403;28;19915;-78
2023/10/07 02:17:09;;;;;;;;;;;;;;;10.55;100.00;101421.50;5100123;28;19975;-78
2023/10/07 02:19:53;;;;;;;;;;;;;;;10.50;100.00;101425.09;5077802;28;19958;-78
2023/10/07 02:22:38;;;;;;;;;;;;;;;10.49;100.00;101429.81;5088676;28;20267;-77
2023/10/07 02:25:26;;;;;;;;;;;;;;;10.48;100.00;101435.66;5109545;28;19956;-78
2023/10/07 02:28:10;;;;;;;;;;;;;;;10.47;100.00;101434.84;5092419;28;19915;-78
2023/10/07 02:31:01;;;;;;;;;;;;;;;10.47;100.00;101428.41;5102818;28;20318;-78
2023/10/07 02:33:46;;;;;;;;;;;;;;;10.44;100.00;101426.19;5094297;28;19933;-78
2023/10/07 02:36:36;;;;;;;;;;;;;;;10.38;100.00;101436.44;5093123;28;19926;-78
2023/10/07 02:39:31;;;;;;;;;;;;;;;10.35;100.00;101438.91;5080507;28;19919;-78
2023/10/07 02:42:21;;;;;;;;;;;;;;;10.36;100.00;101440.59;5094405;28;20261;-78
2023/10/07 02:45:50;;;;;;;;;;;;;;;10.34;100.00;101440.88;5111227;28;20373;-78
2023/10/07 02:48:10;;;;;;;;;;;;;;;10.27;100.00;101445.81;5104541;28;19988;-78
2023/10/07 02:50:54;;;;;;;;;;;;;;;10.28;100.00;101441.94;5095198;28;19984;-78
2023/10/07 02:53:38;;;;;;;;;;;;;;;10.31;100.00;101444.19;5114763;28;19914;-78
2023/10/07 02:56:22;;;;;;;;;;;;;;;10.27;100.00;101445.81;5107146;28;19972;-77
2023/10/07 02:59:22;;;;;;;;;;;;;;;10.25;100.00;101445.22;5094371;28;19957;-78
2023/10/07 03:02:48;;;;;;;;;;;;;;;10.23;100.00;101444.66;5081950;28;19914;-78
2023/10/07 03:05:27;;;;;;;;;;;;;;;10.22;100.00;101442.97;5108887;28;19915;-78
2023/10/07 03:08:19;;;;;;;;;;;;;;;10.16;100.00;101449.59;5094922;28;19939;-78
2023/10/07 03:11:20;;;;;;;;;;;;;;;10.16;100.00;101441.28;5099699;28;19938;-78
2023/10/07 03:14:04;;;;;;;;;;;;;;;10.15;100.00;101443.22;5112236;28;20003;-78
2023/10/07 03:16:59;;;;;;;;;;;;;;;10.14;100.00;101443.47;5081180;28;19974;-78
2023/10/07 03:19:56;;;;;;;;;;;;;;;10.09;100.00;101437.94;5117438;28;19958;-78
2023/10/07 03:22:43;;;;;;;;;;;;;;;10.07;100.00;101435.41;5103233;28;20359;-78
2023/10/07 03:25:33;;;;;;;;;;;;;;;10.09;100.00;101437.94;5112220;28;19914;-78
2023/10/07 03:28:17;;;;;;;;;;;;;;;10.04;100.00;101434.00;5085061;28;20125;-78
2023/10/07 03:31:08;;;;;;;;;;;;;;;10.02;100.00;101430.66;5091358;28;19919;-78
2023/10/07 03:33:53;;;;;;;;;;;;;;;10.04;100.00;101425.66;5101644;28;20371;-78
2023/10/07 03:37:09;;;;;;;;;;;;;;;9.99;100.00;101430.34;5110413;28;20386;-78
2023/10/07 03:42:53;;;;;;;;;;;;;;;9.96;100.00;101426.16;5098511;28;20267;-78
2023/10/07 03:45:39;;;;;;;;;;;;;;;9.93;100.00;101421.16;5091983;28;19915;-78
2023/10/07 03:48:24;;;;;;;;;;;;;;;9.91;100.00;101423.34;5095813;28;19914;-78
2023/10/07 03:51:09;;;;;;;;;;;;;;;9.88;100.00;101415.56;5112494;28;19941;-78
2023/10/07 03:54:00;;;;;;;;;;;;;;;9.89;100.00;101419.19;5086518;28;19953;-78
2023/10/07 03:56:49;;;;;;;;;;;;;;;9.87;100.00;101408.38;5113043;28;20310;-78
2023/10/07 03:59:34;;;;;;;;;;;;;;;9.83;100.00;101405.28;5120318;28;19915;-79
2023/10/07 04:02:35;;;;;;;;;;;;;;;9.84;100.00;101406.97;5082945;28;19915;-78
2023/10/07 04:05:31;;;;;;;;;;;;;;;9.82;100.00;101408.31;5080833;28;19914;-78
2023/10/07 04:08:15;;;;;;;;;;;;;;;9.78;100.00;101405.25;5108228;28;19915;-78
2023/10/07 04:10:58;;;;;;;;;;;;;;;9.74;100.00;101406.88;5104446;28;20383;-78
2023/10/07 04:13:43;;;;;;;;;;;;;;;9.76;100.00;101404.69;5108430;28;19914;-78
2023/10/07 04:16:29;;;;;;;;;;;;;;;9.77;100.00;101399.97;5091041;28;19961;-78
2023/10/07 04:22:00;;;;;;;;;;;;;;;9.74;100.00;101400.50;5112971;28;19915;-78
2023/10/07 04:24:44;;;;;;;;;;;;;;;9.72;100.00;101402.69;5091778;28;20291;-78
2023/10/07 04:27:28;;;;;;;;;;;;;;;9.71;100.00;101403.81;5107471;28;19943;-78
2023/10/07 04:30:13;;;;;;;;;;;;;;;9.69;100.00;101397.69;5091231;28;20023;-78
2023/10/07 04:33:01;;;;;;;;;;;;;;;9.69;100.00;101397.69;5091457;28;20390;-78
2023/10/07 04:35:50;;;;;;;;;;;;;;;9.69;100.00;101401.28;5106281;28;20390;-78
2023/10/07 04:38:53;;;;;;;;;;;;;;;9.65;100.00;101391.00;5119406;28;19914;-78
2023/10/07 04:41:37;;;;;;;;;;;;;;;9.65;100.00;101399.34;5093547;28;19961;-78
2023/10/07 04:44:21;;;;;;;;;;;;;;;9.67;100.00;101395.19;5081746;28;19915;-78
2023/10/07 04:47:20;;;;;;;;;;;;;;;9.62;100.00;101393.22;5088852;28;20023;-79
2023/10/07 04:52:51;;;;;;;;;;;;;;;9.60;100.00;101395.41;5109027;28;19991;-78
2023/10/07 04:55:39;;;;;;;;;;;;;;;9.58;100.00;101397.63;5091262;28;19915;-78
2023/10/07 04:58:24;;;;;;;;;;;;;;;9.57;100.00;101400.66;5107323;28;19915;-78
2023/10/07 05:04:15;;;;;;;;;;;;;;;9.51;100.00;101408.09;5100488;28;20013;-78
2023/10/07 05:07:00;;;;;;;;;;;;;;;9.51;100.00;101408.09;5092587;28;20012;-78
2023/10/07 05:09:47;;;;;;;;;;;;;;;9.49;100.00;101410.28;5105750;28;19918;-79
2023/10/07 05:12:31;;;;;;;;;;;;;;;9.47;100.00;101418.06;5111231;28;20424;-78
2023/10/07 05:15:15;;;;;;;;;;;;;;;9.46;100.00;101421.91;5095353;28;19957;-78
2023/10/07 05:18:01;;;;;;;;;;;;;;;9.47;100.00;101429.16;5101572;28;19915;-78
2023/10/07 05:20:48;;;;;;;;;;;;;;;9.49;100.00;101420.56;5118848;28;19976;-78
2023/10/07 05:23:33;;;;;;;;;;;;;;;9.43;100.00;101432.72;5105929;28;19930;-78
2023/10/07 05:26:17;;;;;;;;;;;;;;;9.41;100.00;101424.63;5103422;28;19915;-78
2023/10/07 05:29:03;;;;;;;;;;;;;;;9.39;100.00;101421.31;5089328;28;19923;-79
2023/10/07 05:31:47;;;;;;;;;;;;;;;9.34;100.00;101435.97;5115179;27;19956;-78
2023/10/07 05:34:33;;;;;;;;;;;;;;;9.36;100.00;101438.44;5079795;28;19914;-78
2023/10/07 05:37:18;;;;;;;;;;;;;;;9.34;100.00;101449.00;5084247;28;20428;-78
2023/10/07 05:40:03;;;;;;;;;;;;;;;9.31;100.00;101447.59;5109599;28;19915;-78
2023/10/07 05:42:47;;;;;;;;;;;;;;;9.32;100.00;101454.78;5113607;28;19914;-79
2023/10/07 05:45:33;;;;;;;;;;;;;;;9.31;100.00;101455.91;5115866;28;19919;-78
2023/10/07 05:48:17;;;;;;;;;;;;;;;9.24;100.00;101458.03;5112402;28;19992;-79
2023/10/07 05:51:02;;;;;;;;;;;;;;;9.25;100.00;101456.09;5107914;28;19918;-78
2023/10/07 05:53:49;;;;;;;;;;;;;;;9.26;100.00;101457.78;5071289;28;19915;-78
2023/10/07 05:56:33;;;;;;;;;;;;;;;9.23;100.00;101458.31;5106548;28;19914;-78
2023/10/07 05:59:17;;;;;;;;;;;;;;;9.23;100.00;101458.31;5089799;28;19915;-79
2023/10/07 06:02:05;;;;;;;;;;;;;;;9.23;100.00;101458.31;5103081;28;19946;-79
2023/10/07 06:04:49;;;;;;;;;;;;;;;9.20;100.00;101453.28;5089043;28;19984;-78
2023/10/07 06:07:35;;;;;;;;;;;;;;;9.15;100.00;101454.91;5090548;28;19973;-78
2023/10/07 06:10:24;;;;;;;;;;;;;;;9.19;100.00;101457.97;5105382;28;19923;-78
2023/10/07 06:13:08;;;;;;;;;;;;;;;9.15;100.00;101460.44;5089434;28;19918;-78
2023/10/07 06:15:52;;;;;;;;;;;;;;;9.15;100.00;101454.91;5094057;28;19961;-78
2023/10/07 06:18:37;;;;;;;;;;;;;;;9.14;100.00;101450.47;5106546;28;20359;-79
2023/10/07 06:21:27;;;;;;;;;;;;;;;9.15;100.00;101452.13;5103425;28;19914;-78
2023/10/07 06:24:19;;;;;;;;;;;;;;;9.11;100.00;101451.00;5088344;28;20373;-78
2023/10/07 06:27:07;;;;;;;;;;;;;;;9.10;100.00;101457.59;5110743;28;19977;-78
2023/10/07 06:29:51;;;;;;;;;;;;;;;9.15;100.00;101452.13;5100552;28;19960;-78
2023/10/07 06:32:44;;;;;;;;;;;;;;;9.15;100.00;101454.06;5094491;28;20301;-78
2023/10/07 06:35:28;;;;;;;;;;;;;;;9.11;100.00;101455.66;5094771;28;19931;-78
2023/10/07 06:38:19;;;;;;;;;;;;;;;9.14;100.00;101452.41;5108611;28;19919;-78
2023/10/07 06:41:09;;;;;;;;;;;;;;;9.12;100.00;101449.88;5092510;28;20429;-78
2023/10/07 06:43:54;;;;;;;;;;;;;;;9.15;100.00;101454.06;5117698;28;19929;-78
2023/10/07 06:46:41;;;;;;;;;;;;;;;9.15;100.00;101451.28;5093504;28;19915;-78
2023/10/07 06:49:26;;;;;;;;;;;;;;;9.16;100.00;101456.59;5091962;28;20362;-78
2023/10/07 06:52:12;;;;;;;;;;;;;;;9.21;100.00;101460.50;5075717;28;19918;-79
2023/10/07 06:54:56;;;;;;;;;;;;;;;9.26;100.00;101463.31;5092010;28;19914;-78
2023/10/07 06:57:42;;;;;;;;;;;;;;;9.28;100.00;101458.38;5091141;28;19919;-78
2023/10/07 07:00:37;;;;;;;;;;;;;;;9.33;100.00;101459.25;5068982;28;19918;-78
2023/10/07 07:03:25;;;;;;;;;;;;;;;9.40;100.00;101456.25;5099209;28;19914;-78
2023/10/07 07:06:16;;;;;;;;;;;;;;;9.45;100.00;101461.84;5110265;28;19914;-78
2023/10/07 07:09:15;;;;;;;;;;;;;;;9.53;100.00;101466.09;5089845;28;20326;-78
2023/10/07 07:12:04;;;;;;;;;;;;;;;9.62;100.00;101464.50;5095430;28;20338;-78
2023/10/07 07:14:52;;;;;;;;;;;;;;;9.73;100.00;101462.63;5103148;28;19914;-78
2023/10/07 07:17:36;;;;;;;;;;;;;;;9.82;100.00;101458.25;5117292;28;20427;-78
2023/10/07 07:20:32;;;;;;;;;;;;;;;9.89;100.00;101456.13;5102124;28;19918;-78
2023/10/07 07:23:16;;;;;;;;;;;;;;;10.01;100.00;101462.28;5080894;28;20004;-78
2023/10/07 07:28:47;;;;;;;;;;;;;;;10.24;100.00;101465.75;5111298;28;19918;-79
2023/10/07 07:31:33;;;;;;;;;;;;;;;10.34;100.00;101471.41;5098263;27;19999;-78
2023/10/07 07:34:26;;;;;;;;;;;;;;;10.46;100.00;101473.97;5099105;28;19973;-78
2023/10/07 07:37:10;;;;;;;;;;;;;;;10.59;100.00;101470.72;5105924;28;19927;-78
2023/10/07 07:39:54;;;;;;;;;;;;;;;10.74;100.00;101475.47;5094910;28;19919;-78
2023/10/07 07:42:39;;;;;;;;;;;;;;;10.85;100.00;101465.25;5102074;28;19961;-78
2023/10/07 07:45:26;;;;;;;;;;;;;;;10.99;100.00;101471.13;5094562;28;19933;-78
2023/10/07 07:48:10;;;;;;;;;;;;;;;11.12;100.00;101476.19;5113730;28;19926;-79
2023/10/07 07:50:55;;;;;;;;;;;;;;;11.28;100.00;101477.88;5109779;28;20283;-79
2023/10/07 07:53:41;;;;;;;;;;;;;;;11.43;100.00;101471.50;5100847;28;20033;-78
2023/10/07 07:56:29;;;;;;;;;;;;;;;11.60;100.00;101472.06;5092888;28;19929;-79
2023/10/07 07:59:13;;;;;;;;;;;;;;;11.77;100.00;101476.53;5109549;28;19914;-78
2023/10/07 08:02:11;;;;;;;;;;;;;;;11.95;100.00;101480.69;5090451;28;20369;-78
2023/10/07 08:05:02;;;;;;;;;;;;;;;12.12;100.00;101484.03;5117155;28;19929;-79
2023/10/07 08:07:51;;;;;;;;;;;;;;;12.34;100.00;101491.22;5113870;28;20279;-79
2023/10/07 08:10:35;;;;;;;;;;;;;;;12.48;100.00;101495.94;5096195;28;20011;-79
2023/10/07 08:13:23;;;;;;;;;;;;;;;12.67;100.00;101492.53;5092487;28;20299;-79
2023/10/07 08:16:14;;;;;;;;;;;;;;;12.85;100.00;101491.91;5108029;28;19919;-78
2023/10/07 08:18:58;;;;;;;;;;;;;;;13.03;100.00;101497.94;5091717;28;19918;-78
2023/10/07 08:21:45;;;;;;;;;;;;;;;13.18;100.00;101495.09;5115637;28;20361;-79
2023/10/07 08:24:31;;;;;;;;;;;;;;;13.35;100.00;101503.94;5119476;28;19936;-79
2023/10/07 08:30:29;;;;;;;;;;;;;;;13.71;100.00;101497.28;5111594;28;19960;-79
2023/10/07 08:33:14;;;;;;;;;;;;;;;13.88;100.00;101497.69;5109612;28;19925;-79
2023/10/07 08:35:58;;;;;;;;;;;;;;;14.06;100.00;101502.53;5073216;28;19923;-79
2023/10/07 08:38:50;;;;;;;;;;;;;;;14.23;100.00;101495.69;5109873;28;20293;-79
2023/10/07 08:41:34;;;;;;;;;;;;;;;14.41;100.00;101496.91;5112021;28;19915;-79
2023/10/07 08:44:20;;;;;;;;;;;;;;;14.59;100.00;101498.13;5091873;28;19984;-77
2023/10/07 08:47:11;;;;;;;;;;;;;;;14.76;100.00;101501.25;5103127;28;19914;-77
2023/10/07 08:49:56;;;;;;;;;;;;;;;14.95;100.00;101506.91;5090354;28;19919;-77
2023/10/07 08:52:42;;;;;;;;;;;;;;;15.12;100.00;101500.81;5092125;28;19991;-77
2023/10/07 08:55:26;;;;;;;;;;;;;;;15.29;100.00;101501.13;5074892;28;19961;-77
2023/10/07 08:58:11;;;;;;;;;;;;;;;15.48;100.00;101503.09;5110271;28;19915;-77
2023/10/07 09:00:56;;;;;;;;;;;;;;;15.66;100.00;101496.66;5111689;28;19945;-77
2023/10/07 09:03:40;;;;;;;;;;;;;;;15.83;100.00;101501.75;5076900;28;20379;-77
2023/10/07 09:06:32;;;;;;;;;;;;;;;16.01;100.00;101503.66;5106820;28;19923;-77
2023/10/07 09:09:35;;;;;;;;;;;;;;;16.21;100.00;101499.66;5085176;28;19914;-77
2023/10/07 09:12:29;;;;;;;;;;;;;;;16.41;100.00;101497.59;5094849;28;20056;-77
2023/10/07 09:15:14;;;;;;;;;;;;;;;16.58;100.00;101500.66;5095367;28;19922;-77
2023/10/07 09:18:10;;;;;;;;;;;;;;;16.77;100.00;101496.94;5116212;28;20019;-77
2023/10/07 09:20:56;;;;;;;;;;;;;;;16.96;100.00;101506.06;5100683;28;19957;-77
2023/10/07 09:23:44;;;;;;;;;;;;;;;17.13;100.00;101505.44;5109417;28;19934;-77
2023/10/07 09:26:34;;;;;;;;;;;;;;;17.29;100.00;101505.94;5080003;28;19960;-77
2023/10/07 09:29:22;;;;;;;;;;;;;;;17.46;100.00;101508.88;5086828;28;19945;-77
2023/10/07 09:32:39;;;;;;;;;;;;;;;17.65;100.00;101506.75;5111676;27;20012;-78
2023/10/07 09:35:19;;;;;;;;;;;;;;;17.82;100.00;101506.09;5111930;28;19942;-78
2023/10/07 09:38:08;;;;;;;;;;;;;;;17.97;100.00;101512.47;5106389;28;20269;-77
2023/10/07 09:41:12;;;;;;;;;;;;;;;18.15;100.00;101513.41;5091886;28;19921;-78
2023/10/07 09:44:00;;;;;;;;;;;;;;;18.31;100.00;101506.25;5089248;28;19915;-78
2023/10/07 09:46:44;;;;;;;;;;;;;;;18.44;100.00;101505.34;5104612;28;20252;-78
2023/10/07 09:49:30;;;;;;;;;;;;;;;18.57;100.00;101509.19;5111307;28;19980;-78
2023/10/07 09:52:17;;;;;;;;;;;;;;;18.70;100.00;101524.31;5104754;28;19914;-77
2023/10/07 09:55:18;;;;;;;;;;;;;;;18.82;100.00;101521.72;5091123;28;19953;-77
2023/10/07 09:58:06;;;;;;;;;;;;;;;18.96;100.00;101528.06;5109202;28;19915;-78
2023/10/07 10:01:05;;;;;;;;;;;;;;;19.13;100.00;101523.63;5118136;28;19987;-78
2023/10/07 10:03:51;;;;;;;;;;;;;;;19.27;100.00;101523.50;5080829;28;19918;-78
2023/10/07 10:06:39;;;;;;;;;;;;;;;19.44;100.00;101534.78;5117912;28;20044;-78
2023/10/07 10:09:24;;;;;;;;;;;;;;;19.56;100.00;101526.53;5107994;28;19915;-78
2023/10/07 10:12:18;;;;;;;;;;;;;;;19.70;100.00;101531.22;5107026;28;19915;-78
2023/10/07 10:18:06;;;;;;;;;;;;;;;19.95;100.00;101529.56;5117531;28;19949;-78
2023/10/07 10:20:59;;;;;;;;;;;;;;;20.05;100.00;101529.19;5097607;28;19929;-78
2023/10/07 10:23:44;;;;;;;;;;;;;;;20.19;100.00;101526.19;5108938;28;19930;-78
2023/10/07 10:26:33;;;;;;;;;;;;;;;20.30;100.00;101524.66;5093472;28;19914;-78
2023/10/07 10:29:25;;;;;;;;;;;;;;;20.40;100.00;101524.31;5103838;28;19915;-78
2023/10/07 10:32:12;;;;;;;;;;;;;;;20.50;100.00;101523.09;5119848;28;19960;-78
2023/10/07 10:35:00;;;;;;;;;;;;;;;20.62;100.00;101523.28;5115406;28;19943;-78
2023/10/07 10:37:53;;;;;;;;;;;;;;;20.73;100.00;101529.38;5064678;28;19958;-78
2023/10/07 10:40:37;;;;;;;;;;;;;;;20.84;100.00;101518.50;5076841;28;19914;-72
2023/10/07 10:43:22;;;;;;;;;;;;;;;20.94;100.00;101532.25;5077048;28;19915;-72
2023/10/07 10:46:06;;;;;;;;;;;;;;;21.05;100.00;101530.69;5075946;28;19931;-72
2023/10/07 10:48:53;;;;;;;;;;;;;;;21.14;100.00;101525.81;5075751;28;19958;-72
2023/10/07 10:51:56;;;;;;;;;;;;;;;21.26;100.00;101535.59;5076758;28;19919;-72
2023/10/07 10:54:40;;;;;;;;;;;;;;;21.36;100.00;101543.63;5062265;28;20001;-72
2023/10/07 10:57:24;;;;;;;;;;;;;;;21.46;100.00;101539.63;5063299;28;20271;-72
2023/10/07 11:00:19;;;;;;;;;;;;;;;21.57;100.00;101533.22;5075842;28;20462;-72
2023/10/07 11:03:03;;;;;;;;;;;;;;;21.67;100.00;101536.78;5078614;28;19931;-72
2023/10/07 11:05:48;;;;;;;;;;;;;;;21.74;100.00;101537.09;5059979;28;19931;-72
2023/10/07 11:08:33;;;;;;;;;;;;;;;21.87;100.00;101541.63;5066267;28;19934;-72
2023/10/07 11:11:17;;;;;;;;;;;;;;;21.97;100.00;101541.19;5062533;28;19954;-72
2023/10/07 11:14:09;;;;;;;;;;;;;;;22.05;100.00;101539.47;5080461;28;19954;-72
2023/10/07 11:16:57;;;;;;;;;;;;;;;22.15;100.00;101536.22;5078315;28;19997;-72
2023/10/07 11:19:42;;;;;;;;;;;;;;;22.26;100.00;101536.63;5078849;28;19957;-72
2023/10/07 11:22:29;;;;;;;;;;;;;;;22.36;100.00;101538.19;5064838;28;19923;-72
2023/10/07 11:25:18;;;;;;;;;;;;;;;22.46;100.00;101534.91;5065359;28;19919;-72
2023/10/07 11:28:09;;;;;;;;;;;;;;;22.57;100.00;101530.47;5068246;28;19915;-73
2023/10/07 11:30:56;;;;;;;;;;;;;;;22.65;99.83;101523.00;5076705;28;20375;-73
2023/10/07 11:33:49;;;;;;;;;;;;;;;22.75;98.02;101516.91;5083873;28;19919;-73
2023/10/07 11:36:43;;;;;;;;;;;;;;;22.80;95.42;101516.66;5085617;28;20018;-72
2023/10/07 11:39:28;;;;;;;;;;;;;;;22.92;97.88;101513.00;5092993;28;19918;-73
2023/10/07 11:42:12;;;;;;;;;;;;;;;23.01;95.56;101510.09;5116681;28;19995;-71
2023/10/07 11:44:56;;;;;;;;;;;;;;;23.07;96.81;101511.53;5119320;28;19922;-72
2023/10/07 11:47:41;;;;;;;;;;;;;;;23.15;97.52;101499.19;5119932;28;20157;-72
2023/10/07 11:50:29;;;;;;;;;;;;;;;23.20;95.46;101494.13;5104979;28;19919;-72
2023/10/07 11:53:13;;;;;;;;;;;;;;;23.29;100.00;101494.00;5093693;28;20327;-73
2023/10/07 11:55:57;;;;;;;;;;;;;;;23.37;94.74;101484.56;5090508;28;19915;-72
2023/10/07 11:58:46;;;;;;;;;;;;;;;23.47;96.36;101494.56;5109464;28;19957;-72
2023/10/07 12:01:30;;;;;;;;;;;;;;;23.54;95.48;101488.25;5086031;28;19936;-73
2023/10/07 12:04:16;;;;;;;;;;;;;;;23.62;94.48;101485.31;5105420;28;19914;-72
2023/10/07 12:06:59;;;;;;;;;;;;;;;23.69;97.09;101481.03;5119910;28;19971;-72
2023/10/07 12:09:46;;;;;;;;;;;;;;;23.76;93.35;101472.75;5102460;28;19966;-73
2023/10/07 12:12:32;;;;;;;;;;;;;;;23.82;89.98;101476.97;5089365;28;19981;-72
2023/10/07 12:15:17;;;;;;;;;;;;;;;23.88;93.51;101469.03;5090021;28;20024;-72
2023/10/07 12:18:06;;;;;;;;;;;;;;;23.91;84.96;101463.47;5104739;28;19915;-72
2023/10/07 12:20:53;;;;;;;;;;;;;;;23.93;91.62;101465.91;5119777;28;20041;-72
2023/10/07 12:23:38;;;;;;;;;;;;;;;23.97;91.33;101462.00;5083978;28;19945;-72
2023/10/07 12:26:22;;;;;;;;;;;;;;;24.00;88.62;101464.13;5094478;28;20354;-72
2023/10/07 12:29:06;;;;;;;;;;;;;;;24.03;92.42;101454.06;5103189;28;19914;-72
2023/10/07 12:31:51;;;;;;;;;;;;;;;24.09;80.14;101446.91;5104616;28;20627;-72
2023/10/07 12:34:35;;;;;;;;;;;;;;;24.18;80.96;101452.41;5130946;27;19915;-72
2023/10/07 12:37:20;;;;;;;;;;;;;;;24.22;79.86;101457.00;5121659;27;20446;-72
2023/10/07 12:40:05;;;;;;;;;;;;;;;24.21;76.03;101455.38;5125122;27;19954;-72
2023/10/07 12:42:52;;;;;;;;;;;;;;;24.26;79.22;101452.25;5118127;28;19980;-72
2023/10/07 12:45:36;;;;;;;;;;;;;;;24.30;78.18;101446.69;5118887;28;19957;-72
2023/10/07 12:48:20;;;;;;;;;;;;;;;24.37;75.51;101440.34;5119174;28;20309;-72
2023/10/07 12:51:04;;;;;;;;;;;;;;;24.44;76.39;101437.75;5109769;28;19932;-72
2023/10/07 12:53:51;;;;;;;;;;;;;;;24.50;76.68;101436.28;5085483;28;20375;-72
2023/10/07 12:56:36;;;;;;;;;;;;;;;24.48;72.40;101427.28;5113987;28;20293;-72
2023/10/07 12:59:23;;;;;;;;;;;;;;;24.47;76.88;101429.31;5109494;28;19933;-72
2023/10/07 13:02:09;;;;;;;;;;;;;;;24.52;79.49;101431.06;5106189;28;19932;-72
2023/10/07 13:04:55;;;;;;;;;;;;;;;24.58;81.66;101431.59;5115029;28;19914;-72
2023/10/07 13:07:42;;;;;;;;;;;;;;;24.62;77.69;101424.78;5102214;27;19914;-72
2023/10/07 13:10:28;;;;;;;;;;;;;;;24.62;76.14;101423.97;5096160;28;19966;-72
2023/10/07 13:13:19;;;;;;;;;;;;;;;24.66;74.09;101427.75;5104735;28;19915;-72
2023/10/07 13:16:09;;;;;;;;;;;;;;;24.73;70.54;101431.56;5107512;28;19960;-72
2023/10/07 13:18:56;;;;;;;;;;;;;;;24.78;75.98;101427.63;5118674;28;19959;-72
2023/10/07 13:21:41;;;;;;;;;;;;;;;24.85;70.17;101424.13;5080735;28;19992;-72
2023/10/07 13:24:26;;;;;;;;;;;;;;;24.88;68.21;101429.09;5116705;28;20015;-72
2023/10/07 13:27:10;;;;;;;;;;;;;;;24.90;68.55;101423.84;5117411;28;19952;-72
2023/10/07 13:29:54;;;;;;;;;;;;;;;24.92;71.74;101415.78;5111399;28;20317;-72
2023/10/07 13:32:46;;;;;;;;;;;;;;;24.96;66.18;101414.69;5086037;28;19918;-72
2023/10/07 13:35:30;;;;;;;;;;;;;;;25.00;63.83;101406.22;5096496;28;19915;-72
2023/10/07 13:38:15;;;;;;;;;;;;;;;25.01;62.74;101413.53;5116998;28;20014;-72
2023/10/07 13:41:05;;;;;;;;;;;;;;;25.04;64.35;101412.78;5106059;27;19914;-72
2023/10/07 13:43:51;;;;;;;;;;;;;;;25.06;65.21;101416.09;5115547;28;19914;-72
2023/10/07 13:46:37;;;;;;;;;;;;;;;25.07;65.21;101414.91;5103161;28;19913;-72
2023/10/07 13:49:21;;;;;;;;;;;;;;;25.09;59.99;101418.19;5110734;28;19972;-72
2023/10/07 13:52:09;;;;;;;;;;;;;;;25.13;58.78;101418.28;5103582;28;20397;-72
2023/10/07 13:55:18;;;;;;;;;;;;;;;25.09;58.05;101409.66;5102716;28;19914;-72
2023/10/07 13:58:04;;;;;;;;;;;;;;;25.07;59.41;101417.72;5116754;28;19915;-72
2023/10/07 14:00:51;;;;;;;;;;;;;;;25.00;62.81;101414.75;5112521;28;20049;-72
2023/10/07 14:03:39;;;;;;;;;;;;;;;25.00;57.77;101408.25;5115784;28;19915;-72
2023/10/07 14:06:27;;;;;;;;;;;;;;;24.93;58.40;101409.75;5112441;28;20344;-72
2023/10/07 14:09:24;;;;;;;;;;;;;;;24.85;62.52;101401.41;5103400;28;19998;-72
2023/10/07 14:12:09;;;;;;;;;;;;;;;24.72;65.29;101407.22;5096516;28;19977;-72
2023/10/07 14:14:55;;;;;;;;;;;;;;;24.67;65.73;101401.81;5088513;28;19930;-72
2023/10/07 14:17:40;;;;;;;;;;;;;;;24.64;62.28;101399.69;5117463;28;19957;-72
2023/10/07 14:20:24;;;;;;;;;;;;;;;24.50;65.48;101396.53;5107612;28;19914;-72
2023/10/07 14:23:08;;;;;;;;;;;;;;;24.40;65.70;101389.34;5105351;28;19918;-72
2023/10/07 14:25:56;;;;;;;;;;;;;;;24.29;66.01;101400.44;5117781;28;20335;-72
2023/10/07 14:28:46;;;;;;;;;;;;;;;24.22;66.85;101388.91;5094190;28;19915;-72
2023/10/07 14:31:32;;;;;;;;;;;;;;;24.14;71.86;101387.06;5099050;28;20239;-72
2023/10/07 14:34:16;;;;;;;;;;;;;;;24.07;76.37;101386.88;5117760;28;19915;-72
2023/10/07 14:37:00;;;;;;;;;;;;;;;23.93;73.01;101387.34;5101761;28;19926;-72
2023/10/07 14:39:44;;;;;;;;;;;;;;;23.88;75.10;101381.13;5121662;28;20329;-72